sensor_id;sensor_type;location;lat;lon;timestamp;P1;durP1;ratioP1;P2;durP2;ratioP2
28174;SDS011;59417;44.788;10.334;2022-08-06T00:01:49;6.50;;;4.55;;
28174;SDS011;59417;44.788;10.334;2022-08-06T00:04:15;6.28;;;5.28;;
28174;SDS011;59417;44.788;10.334;2022-08-06T00:06:41;9.32;;;5.13;;
28174;SDS011;59417;44.788;10.334;2022-08-06T00:09:07;5.55;;;4.65;;
28174;SDS011;59417;44.788;10.334;2022-08-06T00:11:33;5.30;;;4.80;;
28174;SDS011;59417;44.788;10.334;2022-08-06T00:13:59;8.32;;;4.93;;
28174;SDS011;59417;44.788;10.334;2022-08-06T00:16:25;6.50;;;5.35;;
28174;SDS011;59417;44.788;10.334;2022-08-06T00:18:51;5.93;;;5.22;;
28174;SDS011;59417;44.788;10.334;2022-08-06T00:21:17;7.10;;;4.90;;
28174;SDS011;59417;44.788;10.334;2022-08-06T00:23:43;6.03;;;5.07;;
28174;SDS011;59417;44.788;10.334;2022-08-06T00:26:08;9.40;;;5.13;;
28174;SDS011;59417;44.788;10.334;2022-08-06T00:28:34;10.30;;;6.30;;
28174;SDS011;59417;44.788;10.334;2022-08-06T00:31:00;6.20;;;4.95;;
28174;SDS011;59417;44.788;10.334;2022-08-06T00:33:28;6.45;;;5.70;;
28174;SDS011;59417;44.788;10.334;2022-08-06T00:35:53;6.13;;;5.13;;
28174;SDS011;59417;44.788;10.334;2022-08-06T00:38:19;8.40;;;5.43;;
28174;SDS011;59417;44.788;10.334;2022-08-06T00:40:45;5.43;;;4.93;;
28174;SDS011;59417;44.788;10.334;2022-08-06T00:43:12;7.57;;;5.10;;
28174;SDS011;59417;44.788;10.334;2022-08-06T00:45:38;5.68;;;5.18;;
28174;SDS011;59417;44.788;10.334;2022-08-06T00:48:03;9.20;;;5.38;;
28174;SDS011;59417;44.788;10.334;2022-08-06T00:50:30;7.80;;;4.97;;
28174;SDS011;59417;44.788;10.334;2022-08-06T00:52:56;6.43;;;5.82;;
28174;SDS011;59417;44.788;10.334;2022-08-06T00:55:23;5.80;;;5.30;;
28174;SDS011;59417;44.788;10.334;2022-08-06T00:57:49;5.97;;;4.78;;
28174;SDS011;59417;44.788;10.334;2022-08-06T01:00:15;5.55;;;5.05;;
28174;SDS011;59417;44.788;10.334;2022-08-06T01:02:41;8.30;;;5.57;;
28174;SDS011;59417;44.788;10.334;2022-08-06T01:05:06;5.72;;;5.15;;
28174;SDS011;59417;44.788;10.334;2022-08-06T01:07:32;9.80;;;6.45;;
28174;SDS011;59417;44.788;10.334;2022-08-06T01:09:58;9.35;;;6.57;;
28174;SDS011;59417;44.788;10.334;2022-08-06T01:12:24;7.80;;;7.10;;
28174;SDS011;59417;44.788;10.334;2022-08-06T01:14:51;10.05;;;6.18;;
28174;SDS011;59417;44.788;10.334;2022-08-06T01:20:16;7.45;;;5.82;;
28174;SDS011;59417;44.788;10.334;2022-08-06T01:23:13;6.80;;;6.15;;
28174;SDS011;59417;44.788;10.334;2022-08-06T01:29:37;7.45;;;6.07;;
28174;SDS011;59417;44.788;10.334;2022-08-06T01:31:54;7.05;;;6.35;;
28174;SDS011;59417;44.788;10.334;2022-08-06T01:34:40;8.50;;;5.95;;
28174;SDS011;59417;44.788;10.334;2022-08-06T01:37:17;8.65;;;5.97;;
28174;SDS011;59417;44.788;10.334;2022-08-06T01:39:55;6.55;;;5.32;;
28174;SDS011;59417;44.788;10.334;2022-08-06T01:42:25;8.63;;;5.82;;
28174;SDS011;59417;44.788;10.334;2022-08-06T01:47:21;6.70;;;5.07;;
28174;SDS011;59417;44.788;10.334;2022-08-06T01:49:51;6.65;;;4.55;;
28174;SDS011;59417;44.788;10.334;2022-08-06T01:52:20;5.53;;;4.55;;
28174;SDS011;59417;44.788;10.334;2022-08-06T01:54:49;5.75;;;4.63;;
28174;SDS011;59417;44.788;10.334;2022-08-06T01:57:18;6.15;;;4.55;;
28174;SDS011;59417;44.788;10.334;2022-08-06T01:59:50;4.80;;;4.03;;
28174;SDS011;59417;44.788;10.334;2022-08-06T02:02:20;4.78;;;4.28;;
28174;SDS011;59417;44.788;10.334;2022-08-06T02:04:49;6.40;;;4.53;;
28174;SDS011;59417;44.788;10.334;2022-08-06T02:07:19;6.72;;;4.40;;
28174;SDS011;59417;44.788;10.334;2022-08-06T02:09:50;6.75;;;4.32;;
28174;SDS011;59417;44.788;10.334;2022-08-06T02:12:19;6.70;;;4.13;;
28174;SDS011;59417;44.788;10.334;2022-08-06T02:15:02;4.45;;;3.60;;
28174;SDS011;59417;44.788;10.334;2022-08-06T02:17:34;6.90;;;3.78;;
28174;SDS011;59417;44.788;10.334;2022-08-06T02:20:04;4.80;;;4.15;;
28174;SDS011;59417;44.788;10.334;2022-08-06T02:22:34;5.25;;;4.15;;
28174;SDS011;59417;44.788;10.334;2022-08-06T02:25:04;4.85;;;4.25;;
28174;SDS011;59417;44.788;10.334;2022-08-06T02:27:33;6.38;;;3.85;;
28174;SDS011;59417;44.788;10.334;2022-08-06T02:32:29;4.60;;;4.20;;
28174;SDS011;59417;44.788;10.334;2022-08-06T02:34:54;5.18;;;4.63;;
28174;SDS011;59417;44.788;10.334;2022-08-06T02:37:26;4.75;;;4.22;;
28174;SDS011;59417;44.788;10.334;2022-08-06T02:40:07;5.30;;;4.55;;
28174;SDS011;59417;44.788;10.334;2022-08-06T02:42:43;7.35;;;3.97;;
28174;SDS011;59417;44.788;10.334;2022-08-06T02:50:31;4.50;;;4.05;;
28174;SDS011;59417;44.788;10.334;2022-08-06T02:53:04;6.30;;;3.38;;
28174;SDS011;59417;44.788;10.334;2022-08-06T02:55:34;5.47;;;4.07;;
28174;SDS011;59417;44.788;10.334;2022-08-06T03:00:36;7.45;;;3.97;;
28174;SDS011;59417;44.788;10.334;2022-08-06T03:03:03;4.55;;;3.92;;
28174;SDS011;59417;44.788;10.334;2022-08-06T03:05:30;5.60;;;4.10;;
28174;SDS011;59417;44.788;10.334;2022-08-06T03:07:56;3.95;;;3.65;;
28174;SDS011;59417;44.788;10.334;2022-08-06T03:10:24;5.07;;;4.07;;
28174;SDS011;59417;44.788;10.334;2022-08-06T03:12:51;8.65;;;4.55;;
28174;SDS011;59417;44.788;10.334;2022-08-06T03:15:19;5.55;;;3.85;;
28174;SDS011;59417;44.788;10.334;2022-08-06T03:17:45;6.38;;;3.65;;
28174;SDS011;59417;44.788;10.334;2022-08-06T03:20:12;5.45;;;4.63;;
28174;SDS011;59417;44.788;10.334;2022-08-06T03:22:44;5.05;;;3.88;;
28174;SDS011;59417;44.788;10.334;2022-08-06T03:25:13;4.75;;;3.80;;
28174;SDS011;59417;44.788;10.334;2022-08-06T03:27:41;8.02;;;3.70;;
28174;SDS011;59417;44.788;10.334;2022-08-06T03:30:09;7.13;;;4.43;;
28174;SDS011;59417;44.788;10.334;2022-08-06T03:32:36;4.93;;;3.63;;
28174;SDS011;59417;44.788;10.334;2022-08-06T03:35:03;5.55;;;4.22;;
28174;SDS011;59417;44.788;10.334;2022-08-06T03:37:30;6.40;;;3.78;;
28174;SDS011;59417;44.788;10.334;2022-08-06T03:39:59;5.65;;;3.75;;
28174;SDS011;59417;44.788;10.334;2022-08-06T03:42:26;5.05;;;3.55;;
28174;SDS011;59417;44.788;10.334;2022-08-06T03:44:52;4.15;;;3.78;;
28174;SDS011;59417;44.788;10.334;2022-08-06T03:47:19;6.90;;;4.18;;
28174;SDS011;59417;44.788;10.334;2022-08-06T03:49:51;3.75;;;3.45;;
28174;SDS011;59417;44.788;10.334;2022-08-06T03:52:39;4.28;;;3.85;;
28174;SDS011;59417;44.788;10.334;2022-08-06T03:55:12;4.88;;;3.33;;
28174;SDS011;59417;44.788;10.334;2022-08-06T03:57:43;4.28;;;3.53;;
28174;SDS011;59417;44.788;10.334;2022-08-06T04:00:13;8.57;;;3.70;;
28174;SDS011;59417;44.788;10.334;2022-08-06T04:02:42;4.43;;;4.03;;
28174;SDS011;59417;44.788;10.334;2022-08-06T04:05:10;4.18;;;3.78;;
28174;SDS011;59417;44.788;10.334;2022-08-06T04:07:38;6.25;;;3.80;;
28174;SDS011;59417;44.788;10.334;2022-08-06T04:10:05;4.63;;;3.40;;
28174;SDS011;59417;44.788;10.334;2022-08-06T04:12:31;4.63;;;3.83;;
28174;SDS011;59417;44.788;10.334;2022-08-06T04:14:58;4.85;;;3.58;;
28174;SDS011;59417;44.788;10.334;2022-08-06T04:17:24;4.43;;;3.35;;
28174;SDS011;59417;44.788;10.334;2022-08-06T04:19:52;4.20;;;3.75;;
28174;SDS011;59417;44.788;10.334;2022-08-06T04:22:19;4.07;;;3.63;;
28174;SDS011;59417;44.788;10.334;2022-08-06T04:24:46;4.82;;;4.32;;
28174;SDS011;59417;44.788;10.334;2022-08-06T04:27:13;4.97;;;4.45;;
28174;SDS011;59417;44.788;10.334;2022-08-06T04:29:40;7.00;;;3.83;;
28174;SDS011;59417;44.788;10.334;2022-08-06T04:32:07;4.95;;;4.07;;
28174;SDS011;59417;44.788;10.334;2022-08-06T04:34:35;4.78;;;4.13;;
28174;SDS011;59417;44.788;10.334;2022-08-06T04:37:03;5.20;;;3.90;;
28174;SDS011;59417;44.788;10.334;2022-08-06T04:39:30;7.13;;;4.30;;
28174;SDS011;59417;44.788;10.334;2022-08-06T04:41:57;4.85;;;3.47;;
28174;SDS011;59417;44.788;10.334;2022-08-06T04:44:23;4.82;;;3.65;;
28174;SDS011;59417;44.788;10.334;2022-08-06T04:46:49;3.58;;;3.17;;
28174;SDS011;59417;44.788;10.334;2022-08-06T04:49:16;7.85;;;4.18;;
28174;SDS011;59417;44.788;10.334;2022-08-06T04:51:45;5.88;;;3.67;;
28174;SDS011;59417;44.788;10.334;2022-08-06T04:54:12;3.80;;;3.50;;
28174;SDS011;59417;44.788;10.334;2022-08-06T04:56:39;4.00;;;3.47;;
28174;SDS011;59417;44.788;10.334;2022-08-06T04:59:05;6.55;;;3.95;;
28174;SDS011;59417;44.788;10.334;2022-08-06T05:01:31;6.90;;;3.75;;
28174;SDS011;59417;44.788;10.334;2022-08-06T05:03:57;6.53;;;3.97;;
28174;SDS011;59417;44.788;10.334;2022-08-06T05:09:00;4.32;;;3.92;;
28174;SDS011;59417;44.788;10.334;2022-08-06T05:12:03;4.93;;;3.80;;
28174;SDS011;59417;44.788;10.334;2022-08-06T05:14:37;4.32;;;3.90;;
28174;SDS011;59417;44.788;10.334;2022-08-06T05:17:17;5.30;;;3.78;;
28174;SDS011;59417;44.788;10.334;2022-08-06T05:20:02;5.22;;;4.00;;
28174;SDS011;59417;44.788;10.334;2022-08-06T05:22:34;4.10;;;3.67;;
28174;SDS011;59417;44.788;10.334;2022-08-06T05:25:01;6.05;;;4.30;;
28174;SDS011;59417;44.788;10.334;2022-08-06T05:27:27;4.15;;;3.75;;
28174;SDS011;59417;44.788;10.334;2022-08-06T05:29:52;9.60;;;4.20;;
28174;SDS011;59417;44.788;10.334;2022-08-06T05:32:18;5.85;;;4.32;;
28174;SDS011;59417;44.788;10.334;2022-08-06T05:34:45;4.50;;;4.10;;
28174;SDS011;59417;44.788;10.334;2022-08-06T05:37:11;6.10;;;4.38;;
28174;SDS011;59417;44.788;10.334;2022-08-06T05:39:37;5.75;;;4.10;;
28174;SDS011;59417;44.788;10.334;2022-08-06T05:42:03;4.85;;;4.05;;
28174;SDS011;59417;44.788;10.334;2022-08-06T05:44:29;7.95;;;4.88;;
28174;SDS011;59417;44.788;10.334;2022-08-06T05:46:57;8.45;;;4.32;;
28174;SDS011;59417;44.788;10.334;2022-08-06T05:49:32;6.32;;;4.60;;
28174;SDS011;59417;44.788;10.334;2022-08-06T05:54:47;5.10;;;4.30;;
28174;SDS011;59417;44.788;10.334;2022-08-06T05:57:35;4.32;;;3.72;;
28174;SDS011;59417;44.788;10.334;2022-08-06T06:00:05;7.75;;;4.35;;
28174;SDS011;59417;44.788;10.334;2022-08-06T06:02:38;5.47;;;4.18;;
28174;SDS011;59417;44.788;10.334;2022-08-06T06:05:07;7.22;;;4.30;;
28174;SDS011;59417;44.788;10.334;2022-08-06T06:07:33;5.15;;;4.38;;
28174;SDS011;59417;44.788;10.334;2022-08-06T06:10:03;4.53;;;4.13;;
28174;SDS011;59417;44.788;10.334;2022-08-06T06:12:32;6.90;;;4.22;;
28174;SDS011;59417;44.788;10.334;2022-08-06T06:15:02;6.93;;;4.10;;
28174;SDS011;59417;44.788;10.334;2022-08-06T06:22:51;5.93;;;4.38;;
28174;SDS011;59417;44.788;10.334;2022-08-06T06:28:22;6.80;;;4.87;;
28174;SDS011;59417;44.788;10.334;2022-08-06T06:30:51;13.70;;;4.70;;
28174;SDS011;59417;44.788;10.334;2022-08-06T06:35:53;6.03;;;4.40;;
28174;SDS011;59417;44.788;10.334;2022-08-06T06:46:49;7.35;;;4.32;;
28174;SDS011;59417;44.788;10.334;2022-08-06T06:52:20;4.88;;;4.38;;
28174;SDS011;59417;44.788;10.334;2022-08-06T06:54:52;5.25;;;4.00;;
28174;SDS011;59417;44.788;10.334;2022-08-06T06:57:25;5.60;;;4.35;;
28174;SDS011;59417;44.788;10.334;2022-08-06T07:00:00;6.32;;;4.10;;
28174;SDS011;59417;44.788;10.334;2022-08-06T07:02:30;5.30;;;4.57;;
28174;SDS011;59417;44.788;10.334;2022-08-06T07:04:57;5.93;;;4.82;;
28174;SDS011;59417;44.788;10.334;2022-08-06T07:07:28;8.65;;;4.85;;
28174;SDS011;59417;44.788;10.334;2022-08-06T07:09:59;5.40;;;4.13;;
28174;SDS011;59417;44.788;10.334;2022-08-06T07:12:27;9.60;;;4.47;;
28174;SDS011;59417;44.788;10.334;2022-08-06T07:14:55;4.28;;;3.88;;
28174;SDS011;59417;44.788;10.334;2022-08-06T07:17:23;7.25;;;4.40;;
28174;SDS011;59417;44.788;10.334;2022-08-06T07:19:50;4.75;;;3.65;;
28174;SDS011;59417;44.788;10.334;2022-08-06T07:22:19;4.65;;;3.53;;
28174;SDS011;59417;44.788;10.334;2022-08-06T07:24:46;4.47;;;3.17;;
28174;SDS011;59417;44.788;10.334;2022-08-06T07:27:16;6.10;;;3.78;;
28174;SDS011;59417;44.788;10.334;2022-08-06T07:29:43;9.93;;;4.10;;
28174;SDS011;59417;44.788;10.334;2022-08-06T07:32:10;5.80;;;3.72;;
28174;SDS011;59417;44.788;10.334;2022-08-06T07:34:37;4.32;;;3.65;;
28174;SDS011;59417;44.788;10.334;2022-08-06T07:37:04;8.77;;;3.80;;
28174;SDS011;59417;44.788;10.334;2022-08-06T07:39:32;4.10;;;3.42;;
28174;SDS011;59417;44.788;10.334;2022-08-06T07:42:05;8.60;;;4.05;;
28174;SDS011;59417;44.788;10.334;2022-08-06T07:44:36;8.98;;;3.67;;
28174;SDS011;59417;44.788;10.334;2022-08-06T07:47:04;3.50;;;3.20;;
28174;SDS011;59417;44.788;10.334;2022-08-06T07:49:39;6.75;;;3.83;;
28174;SDS011;59417;44.788;10.334;2022-08-06T07:52:07;8.18;;;3.70;;
28174;SDS011;59417;44.788;10.334;2022-08-06T07:54:37;4.70;;;4.10;;
28174;SDS011;59417;44.788;10.334;2022-08-06T07:57:05;5.57;;;4.10;;
28174;SDS011;59417;44.788;10.334;2022-08-06T07:59:31;4.25;;;3.67;;
28174;SDS011;59417;44.788;10.334;2022-08-06T08:01:58;4.72;;;3.10;;
28174;SDS011;59417;44.788;10.334;2022-08-06T08:04:28;8.93;;;3.70;;
28174;SDS011;59417;44.788;10.334;2022-08-06T08:07:13;8.57;;;3.58;;
28174;SDS011;59417;44.788;10.334;2022-08-06T08:09:41;4.45;;;3.42;;
28174;SDS011;59417;44.788;10.334;2022-08-06T08:12:10;5.57;;;4.03;;
28174;SDS011;59417;44.788;10.334;2022-08-06T08:14:39;6.47;;;3.20;;
28174;SDS011;59417;44.788;10.334;2022-08-06T08:19:33;5.75;;;3.88;;
28174;SDS011;59417;44.788;10.334;2022-08-06T08:22:00;4.13;;;3.78;;
28174;SDS011;59417;44.788;10.334;2022-08-06T08:24:41;5.55;;;3.70;;
28174;SDS011;59417;44.788;10.334;2022-08-06T08:27:08;4.38;;;3.97;;
28174;SDS011;59417;44.788;10.334;2022-08-06T08:29:36;5.72;;;4.18;;
28174;SDS011;59417;44.788;10.334;2022-08-06T08:32:04;11.20;;;4.10;;
28174;SDS011;59417;44.788;10.334;2022-08-06T08:34:30;6.90;;;3.70;;
28174;SDS011;59417;44.788;10.334;2022-08-06T08:36:57;4.13;;;3.70;;
28174;SDS011;59417;44.788;10.334;2022-08-06T08:39:23;6.30;;;4.03;;
28174;SDS011;59417;44.788;10.334;2022-08-06T08:41:50;6.43;;;4.38;;
28174;SDS011;59417;44.788;10.334;2022-08-06T08:44:27;7.15;;;4.47;;
28174;SDS011;59417;44.788;10.334;2022-08-06T08:46:56;8.85;;;5.32;;
28174;SDS011;59417;44.788;10.334;2022-08-06T08:52:15;5.18;;;4.68;;
28174;SDS011;59417;44.788;10.334;2022-08-06T08:54:44;6.82;;;5.07;;
28174;SDS011;59417;44.788;10.334;2022-08-06T08:57:13;7.68;;;5.60;;
28174;SDS011;59417;44.788;10.334;2022-08-06T08:59:40;8.25;;;6.05;;
28174;SDS011;59417;44.788;10.334;2022-08-06T09:02:07;12.25;;;5.13;;
28174;SDS011;59417;44.788;10.334;2022-08-06T09:07:02;10.18;;;5.68;;
28174;SDS011;59417;44.788;10.334;2022-08-06T09:09:29;5.43;;;4.63;;
28174;SDS011;59417;44.788;10.334;2022-08-06T09:11:58;6.15;;;5.55;;
28174;SDS011;59417;44.788;10.334;2022-08-06T09:14:24;7.85;;;6.15;;
28174;SDS011;59417;44.788;10.334;2022-08-06T09:16:50;11.52;;;6.03;;
28174;SDS011;59417;44.788;10.334;2022-08-06T09:19:16;9.40;;;5.22;;
28174;SDS011;59417;44.788;10.334;2022-08-06T09:21:42;7.38;;;5.00;;
28174;SDS011;59417;44.788;10.334;2022-08-06T09:24:09;6.82;;;4.97;;
28174;SDS011;59417;44.788;10.334;2022-08-06T09:26:35;7.78;;;5.13;;
28174;SDS011;59417;44.788;10.334;2022-08-06T09:29:00;12.20;;;5.38;;
28174;SDS011;59417;44.788;10.334;2022-08-06T09:31:26;6.40;;;5.22;;
28174;SDS011;59417;44.788;10.334;2022-08-06T09:34:02;7.68;;;4.97;;
28174;SDS011;59417;44.788;10.334;2022-08-06T09:36:40;7.22;;;4.88;;
28174;SDS011;59417;44.788;10.334;2022-08-06T09:39:07;10.32;;;4.85;;
28174;SDS011;59417;44.788;10.334;2022-08-06T09:41:32;8.98;;;4.60;;
28174;SDS011;59417;44.788;10.334;2022-08-06T09:44:01;10.70;;;5.05;;
28174;SDS011;59417;44.788;10.334;2022-08-06T09:49:10;8.63;;;4.60;;
28174;SDS011;59417;44.788;10.334;2022-08-06T09:51:37;6.70;;;4.68;;
28174;SDS011;59417;44.788;10.334;2022-08-06T09:54:04;7.95;;;4.35;;
28174;SDS011;59417;44.788;10.334;2022-08-06T09:56:34;6.07;;;4.18;;
28174;SDS011;59417;44.788;10.334;2022-08-06T09:59:01;7.03;;;5.07;;
28174;SDS011;59417;44.788;10.334;2022-08-06T10:01:28;5.43;;;4.40;;
28174;SDS011;59417;44.788;10.334;2022-08-06T10:03:55;9.43;;;4.75;;
28174;SDS011;59417;44.788;10.334;2022-08-06T10:06:22;8.68;;;4.43;;
28174;SDS011;59417;44.788;10.334;2022-08-06T10:08:51;4.35;;;3.95;;
28174;SDS011;59417;44.788;10.334;2022-08-06T10:14:00;5.95;;;4.30;;
28174;SDS011;59417;44.788;10.334;2022-08-06T10:16:26;5.30;;;4.65;;
28174;SDS011;59417;44.788;10.334;2022-08-06T10:18:55;7.18;;;3.85;;
28174;SDS011;59417;44.788;10.334;2022-08-06T10:21:27;7.53;;;3.90;;
28174;SDS011;59417;44.788;10.334;2022-08-06T10:23:55;5.25;;;4.32;;
28174;SDS011;59417;44.788;10.334;2022-08-06T10:26:30;5.03;;;4.05;;
28174;SDS011;59417;44.788;10.334;2022-08-06T10:29:03;7.82;;;4.32;;
28174;SDS011;59417;44.788;10.334;2022-08-06T10:31:31;5.40;;;4.28;;
28174;SDS011;59417;44.788;10.334;2022-08-06T10:36:43;4.20;;;3.90;;
28174;SDS011;59417;44.788;10.334;2022-08-06T10:39:11;4.90;;;4.35;;
28174;SDS011;59417;44.788;10.334;2022-08-06T10:41:39;4.13;;;3.72;;
28174;SDS011;59417;44.788;10.334;2022-08-06T10:44:05;5.53;;;4.28;;
28174;SDS011;59417;44.788;10.334;2022-08-06T10:46:32;6.35;;;4.28;;
28174;SDS011;59417;44.788;10.334;2022-08-06T10:48:58;5.28;;;4.32;;
28174;SDS011;59417;44.788;10.334;2022-08-06T10:51:25;6.20;;;4.05;;
28174;SDS011;59417;44.788;10.334;2022-08-06T10:53:51;5.15;;;4.18;;
28174;SDS011;59417;44.788;10.334;2022-08-06T10:56:17;6.57;;;4.25;;
28174;SDS011;59417;44.788;10.334;2022-08-06T10:58:43;9.00;;;4.32;;
28174;SDS011;59417;44.788;10.334;2022-08-06T11:01:12;4.15;;;3.75;;
28174;SDS011;59417;44.788;10.334;2022-08-06T11:03:51;5.55;;;3.90;;
28174;SDS011;59417;44.788;10.334;2022-08-06T11:12:26;7.13;;;4.70;;
28174;SDS011;59417;44.788;10.334;2022-08-06T11:14:59;10.77;;;4.60;;
28174;SDS011;59417;44.788;10.334;2022-08-06T11:17:25;7.28;;;4.20;;
28174;SDS011;59417;44.788;10.334;2022-08-06T11:20:06;5.65;;;4.22;;
28174;SDS011;59417;44.788;10.334;2022-08-06T11:24:59;5.97;;;4.75;;
28174;SDS011;59417;44.788;10.334;2022-08-06T11:30:14;8.07;;;4.70;;
28174;SDS011;59417;44.788;10.334;2022-08-06T11:38:03;9.85;;;4.40;;
28174;SDS011;59417;44.788;10.334;2022-08-06T11:46:18;6.95;;;4.25;;
28174;SDS011;59417;44.788;10.334;2022-08-06T11:51:43;6.45;;;4.85;;
28174;SDS011;59417;44.788;10.334;2022-08-06T11:57:16;4.63;;;4.22;;
28174;SDS011;59417;44.788;10.334;2022-08-06T11:59:31;8.20;;;5.20;;
28174;SDS011;59417;44.788;10.334;2022-08-06T12:01:57;5.18;;;4.15;;
28174;SDS011;59417;44.788;10.334;2022-08-06T12:09:58;4.97;;;4.43;;
28174;SDS011;59417;44.788;10.334;2022-08-06T12:12:44;10.32;;;4.80;;
28174;SDS011;59417;44.788;10.334;2022-08-06T12:17:38;6.43;;;4.68;;
28174;SDS011;59417;44.788;10.334;2022-08-06T12:20:05;4.78;;;4.20;;
28174;SDS011;59417;44.788;10.334;2022-08-06T12:22:33;5.88;;;3.70;;
28174;SDS011;59417;44.788;10.334;2022-08-06T12:25:02;5.30;;;4.57;;
28174;SDS011;59417;44.788;10.334;2022-08-06T12:27:33;4.38;;;3.80;;
28174;SDS011;59417;44.788;10.334;2022-08-06T12:30:01;5.13;;;4.43;;
28174;SDS011;59417;44.788;10.334;2022-08-06T12:32:32;6.43;;;4.28;;
28174;SDS011;59417;44.788;10.334;2022-08-06T12:35:01;5.55;;;4.05;;
28174;SDS011;59417;44.788;10.334;2022-08-06T12:37:35;7.55;;;4.50;;
28174;SDS011;59417;44.788;10.334;2022-08-06T12:40:09;6.10;;;4.00;;
28174;SDS011;59417;44.788;10.334;2022-08-06T12:42:49;9.27;;;4.72;;
28174;SDS011;59417;44.788;10.334;2022-08-06T12:45:19;6.68;;;4.70;;
28174;SDS011;59417;44.788;10.334;2022-08-06T12:48:03;7.70;;;4.65;;
28174;SDS011;59417;44.788;10.334;2022-08-06T12:50:31;6.32;;;4.32;;
28174;SDS011;59417;44.788;10.334;2022-08-06T12:53:04;6.32;;;4.30;;
28174;SDS011;59417;44.788;10.334;2022-08-06T12:55:35;12.15;;;4.47;;
28174;SDS011;59417;44.788;10.334;2022-08-06T12:58:18;9.20;;;4.50;;
28174;SDS011;59417;44.788;10.334;2022-08-06T13:00:50;5.40;;;4.72;;
28174;SDS011;59417;44.788;10.334;2022-08-06T13:03:19;5.07;;;4.57;;
28174;SDS011;59417;44.788;10.334;2022-08-06T13:05:47;4.90;;;4.40;;
28174;SDS011;59417;44.788;10.334;2022-08-06T13:08:15;4.43;;;4.03;;
28174;SDS011;59417;44.788;10.334;2022-08-06T13:10:47;7.95;;;4.45;;
28174;SDS011;59417;44.788;10.334;2022-08-06T13:13:16;7.45;;;4.47;;
28174;SDS011;59417;44.788;10.334;2022-08-06T13:15:42;9.05;;;4.35;;
28174;SDS011;59417;44.788;10.334;2022-08-06T13:18:29;5.75;;;4.47;;
28174;SDS011;59417;44.788;10.334;2022-08-06T13:20:55;4.82;;;4.35;;
28174;SDS011;59417;44.788;10.334;2022-08-06T13:25:52;7.80;;;4.28;;
28174;SDS011;59417;44.788;10.334;2022-08-06T13:28:22;5.40;;;3.90;;
28174;SDS011;59417;44.788;10.334;2022-08-06T13:30:49;7.13;;;3.72;;
28174;SDS011;59417;44.788;10.334;2022-08-06T13:33:21;5.63;;;4.13;;
28174;SDS011;59417;44.788;10.334;2022-08-06T13:35:49;6.78;;;4.18;;
28174;SDS011;59417;44.788;10.334;2022-08-06T13:38:35;7.43;;;4.38;;
28174;SDS011;59417;44.788;10.334;2022-08-06T13:41:01;5.03;;;4.50;;
28174;SDS011;59417;44.788;10.334;2022-08-06T13:43:39;8.63;;;5.07;;
28174;SDS011;59417;44.788;10.334;2022-08-06T13:46:16;5.75;;;4.88;;
28174;SDS011;59417;44.788;10.334;2022-08-06T13:48:43;5.20;;;4.70;;
28174;SDS011;59417;44.788;10.334;2022-08-06T13:51:13;4.72;;;4.22;;
28174;SDS011;59417;44.788;10.334;2022-08-06T13:53:40;6.53;;;4.13;;
28174;SDS011;59417;44.788;10.334;2022-08-06T13:56:06;5.43;;;4.20;;
28174;SDS011;59417;44.788;10.334;2022-08-06T13:58:36;4.63;;;4.20;;
28174;SDS011;59417;44.788;10.334;2022-08-06T14:01:02;9.18;;;4.25;;
28174;SDS011;59417;44.788;10.334;2022-08-06T14:03:27;6.72;;;4.68;;
28174;SDS011;59417;44.788;10.334;2022-08-06T14:05:54;10.13;;;4.25;;
28174;SDS011;59417;44.788;10.334;2022-08-06T14:08:20;9.05;;;5.07;;
28174;SDS011;59417;44.788;10.334;2022-08-06T14:10:45;9.13;;;4.70;;
28174;SDS011;59417;44.788;10.334;2022-08-06T14:13:11;6.90;;;4.80;;
28174;SDS011;59417;44.788;10.334;2022-08-06T14:15:52;8.02;;;4.85;;
28174;SDS011;59417;44.788;10.334;2022-08-06T14:18:19;8.60;;;4.85;;
28174;SDS011;59417;44.788;10.334;2022-08-06T14:20:45;5.72;;;4.95;;
28174;SDS011;59417;44.788;10.334;2022-08-06T14:23:12;7.60;;;5.57;;
28174;SDS011;59417;44.788;10.334;2022-08-06T14:25:39;5.07;;;4.57;;
28174;SDS011;59417;44.788;10.334;2022-08-06T14:28:06;5.70;;;4.60;;
28174;SDS011;59417;44.788;10.334;2022-08-06T14:30:31;9.18;;;4.82;;
28174;SDS011;59417;44.788;10.334;2022-08-06T14:32:58;9.93;;;4.75;;
28174;SDS011;59417;44.788;10.334;2022-08-06T14:35:29;6.00;;;4.90;;
28174;SDS011;59417;44.788;10.334;2022-08-06T14:37:54;6.82;;;4.53;;
28174;SDS011;59417;44.788;10.334;2022-08-06T14:40:20;5.88;;;4.65;;
28174;SDS011;59417;44.788;10.334;2022-08-06T14:43:06;6.82;;;4.70;;
28174;SDS011;59417;44.788;10.334;2022-08-06T14:45:51;10.05;;;4.65;;
28174;SDS011;59417;44.788;10.334;2022-08-06T14:48:17;6.32;;;3.88;;
28174;SDS011;59417;44.788;10.334;2022-08-06T14:50:42;4.82;;;3.92;;
28174;SDS011;59417;44.788;10.334;2022-08-06T14:53:08;8.52;;;4.22;;
28174;SDS011;59417;44.788;10.334;2022-08-06T14:55:34;5.55;;;4.43;;
28174;SDS011;59417;44.788;10.334;2022-08-06T14:58:00;9.00;;;4.75;;
28174;SDS011;59417;44.788;10.334;2022-08-06T15:00:26;6.07;;;4.47;;
28174;SDS011;59417;44.788;10.334;2022-08-06T15:02:51;5.97;;;4.43;;
28174;SDS011;59417;44.788;10.334;2022-08-06T15:05:17;4.80;;;4.20;;
28174;SDS011;59417;44.788;10.334;2022-08-06T15:07:43;5.75;;;4.60;;
28174;SDS011;59417;44.788;10.334;2022-08-06T15:10:09;5.22;;;4.53;;
28174;SDS011;59417;44.788;10.334;2022-08-06T15:12:35;9.93;;;4.30;;
28174;SDS011;59417;44.788;10.334;2022-08-06T15:15:02;4.95;;;3.70;;
28174;SDS011;59417;44.788;10.334;2022-08-06T15:17:29;5.88;;;4.10;;
28174;SDS011;59417;44.788;10.334;2022-08-06T15:19:55;4.57;;;4.10;;
28174;SDS011;59417;44.788;10.334;2022-08-06T15:22:21;4.53;;;3.92;;
28174;SDS011;59417;44.788;10.334;2022-08-06T15:24:47;5.28;;;4.00;;
28174;SDS011;59417;44.788;10.334;2022-08-06T15:27:13;7.95;;;4.10;;
28174;SDS011;59417;44.788;10.334;2022-08-06T15:29:45;4.60;;;4.20;;
28174;SDS011;59417;44.788;10.334;2022-08-06T15:32:14;5.93;;;4.25;;
28174;SDS011;59417;44.788;10.334;2022-08-06T15:34:40;6.28;;;4.00;;
28174;SDS011;59417;44.788;10.334;2022-08-06T15:37:06;3.47;;;3.17;;
28174;SDS011;59417;44.788;10.334;2022-08-06T15:39:33;4.72;;;4.20;;
28174;SDS011;59417;44.788;10.334;2022-08-06T15:42:00;5.60;;;4.38;;
28174;SDS011;59417;44.788;10.334;2022-08-06T15:44:26;6.38;;;4.40;;
28174;SDS011;59417;44.788;10.334;2022-08-06T15:46:52;5.43;;;3.72;;
28174;SDS011;59417;44.788;10.334;2022-08-06T15:49:17;5.00;;;4.43;;
28174;SDS011;59417;44.788;10.334;2022-08-06T15:51:43;6.20;;;3.90;;
28174;SDS011;59417;44.788;10.334;2022-08-06T15:54:12;8.20;;;4.57;;
28174;SDS011;59417;44.788;10.334;2022-08-06T15:56:38;5.20;;;4.70;;
28174;SDS011;59417;44.788;10.334;2022-08-06T15:59:03;4.50;;;4.10;;
28174;SDS011;59417;44.788;10.334;2022-08-06T16:01:30;7.28;;;4.55;;
28174;SDS011;59417;44.788;10.334;2022-08-06T16:03:57;6.22;;;3.85;;
28174;SDS011;59417;44.788;10.334;2022-08-06T16:06:23;6.47;;;4.40;;
28174;SDS011;59417;44.788;10.334;2022-08-06T16:08:48;6.60;;;4.40;;
28174;SDS011;59417;44.788;10.334;2022-08-06T16:11:15;5.65;;;4.28;;
28174;SDS011;59417;44.788;10.334;2022-08-06T16:13:41;4.10;;;3.80;;
28174;SDS011;59417;44.788;10.334;2022-08-06T16:16:06;4.63;;;4.03;;
28174;SDS011;59417;44.788;10.334;2022-08-06T16:18:32;6.78;;;4.30;;
28174;SDS011;59417;44.788;10.334;2022-08-06T16:20:59;7.00;;;4.10;;
28174;SDS011;59417;44.788;10.334;2022-08-06T16:23:25;3.90;;;3.60;;
28174;SDS011;59417;44.788;10.334;2022-08-06T16:25:52;6.03;;;4.55;;